sensor_id;sensor_type;location;lat;lon;timestamp;P1;durP1;ratioP1;P2;durP2;ratioP2
11139;SDS011;5624;49.388;11.350;2022-08-20T00:00:03;17.88;;;14.77;;
11139;SDS011;5624;49.388;11.350;2022-08-20T00:02:37;18.02;;;14.18;;
11139;SDS011;5624;49.388;11.350;2022-08-20T00:05:08;15.82;;;13.45;;
11139;SDS011;5624;49.388;11.350;2022-08-20T00:07:34;15.52;;;13.80;;
11139;SDS011;5624;49.388;11.350;2022-08-20T00:10:00;18.02;;;14.38;;
11139;SDS011;5624;49.388;11.350;2022-08-20T00:12:26;15.75;;;13.73;;
11139;SDS011;5624;49.388;11.350;2022-08-20T00:14:51;16.52;;;13.57;;
11139;SDS011;5624;49.388;11.350;2022-08-20T00:17:17;17.70;;;13.27;;
11139;SDS011;5624;49.388;11.350;2022-08-20T00:19:43;18.02;;;13.82;;
11139;SDS011;5624;49.388;11.350;2022-08-20T00:22:08;18.30;;;13.73;;
11139;SDS011;5624;49.388;11.350;2022-08-20T00:24:34;17.40;;;13.23;;
11139;SDS011;5624;49.388;11.350;2022-08-20T00:27:00;16.50;;;14.68;;
11139;SDS011;5624;49.388;11.350;2022-08-20T00:29:26;19.40;;;14.18;;
11139;SDS011;5624;49.388;11.350;2022-08-20T00:31:52;17.88;;;13.52;;
11139;SDS011;5624;49.388;11.350;2022-08-20T00:34:18;19.15;;;15.02;;
11139;SDS011;5624;49.388;11.350;2022-08-20T00:36:43;16.83;;;13.45;;
11139;SDS011;5624;49.388;11.350;2022-08-20T00:39:09;15.00;;;12.70;;
11139;SDS011;5624;49.388;11.350;2022-08-20T00:41:35;18.98;;;13.68;;
11139;SDS011;5624;49.388;11.350;2022-08-20T00:44:15;19.15;;;14.30;;
11139;SDS011;5624;49.388;11.350;2022-08-20T00:46:42;18.13;;;14.15;;
11139;SDS011;5624;49.388;11.350;2022-08-20T00:49:13;16.88;;;13.52;;
11139;SDS011;5624;49.388;11.350;2022-08-20T00:51:43;18.98;;;13.27;;
11139;SDS011;5624;49.388;11.350;2022-08-20T00:54:21;21.08;;;18.00;;
11139;SDS011;5624;49.388;11.350;2022-08-20T00:56:54;19.38;;;17.35;;
11139;SDS011;5624;49.388;11.350;2022-08-20T00:59:24;21.02;;;15.48;;
11139;SDS011;5624;49.388;11.350;2022-08-20T01:01:52;17.85;;;13.93;;
11139;SDS011;5624;49.388;11.350;2022-08-20T01:04:18;19.73;;;14.77;;
11139;SDS011;5624;49.388;11.350;2022-08-20T01:06:44;20.85;;;16.50;;
11139;SDS011;5624;49.388;11.350;2022-08-20T01:09:10;21.88;;;15.35;;
11139;SDS011;5624;49.388;11.350;2022-08-20T01:11:36;22.00;;;16.20;;
11139;SDS011;5624;49.388;11.350;2022-08-20T01:14:10;21.10;;;15.57;;
11139;SDS011;5624;49.388;11.350;2022-08-20T01:17:04;18.15;;;14.48;;
11139;SDS011;5624;49.388;11.350;2022-08-20T01:19:33;22.00;;;15.73;;
11139;SDS011;5624;49.388;11.350;2022-08-20T01:22:04;19.73;;;14.43;;
11139;SDS011;5624;49.388;11.350;2022-08-20T01:24:53;20.45;;;15.85;;
11139;SDS011;5624;49.388;11.350;2022-08-20T01:27:28;20.42;;;18.05;;
11139;SDS011;5624;49.388;11.350;2022-08-20T01:29:56;17.20;;;14.98;;
11139;SDS011;5624;49.388;11.350;2022-08-20T01:32:22;14.77;;;12.90;;
11139;SDS011;5624;49.388;11.350;2022-08-20T01:34:48;18.70;;;14.68;;
11139;SDS011;5624;49.388;11.350;2022-08-20T01:37:14;19.30;;;14.55;;
11139;SDS011;5624;49.388;11.350;2022-08-20T01:39:39;18.20;;;14.82;;
11139;SDS011;5624;49.388;11.350;2022-08-20T01:42:17;18.02;;;14.88;;
11139;SDS011;5624;49.388;11.350;2022-08-20T01:44:50;18.80;;;15.13;;
11139;SDS011;5624;49.388;11.350;2022-08-20T01:49:51;23.77;;;15.65;;
11139;SDS011;5624;49.388;11.350;2022-08-20T01:52:30;18.92;;;16.38;;
11139;SDS011;5624;49.388;11.350;2022-08-20T01:55:05;20.60;;;15.40;;
11139;SDS011;5624;49.388;11.350;2022-08-20T01:57:32;21.15;;;16.65;;
11139;SDS011;5624;49.388;11.350;2022-08-20T01:59:59;17.90;;;15.23;;
11139;SDS011;5624;49.388;11.350;2022-08-20T02:02:26;19.13;;;15.65;;
11139;SDS011;5624;49.388;11.350;2022-08-20T02:04:52;18.55;;;15.23;;
11139;SDS011;5624;49.388;11.350;2022-08-20T02:07:20;16.80;;;13.43;;
11139;SDS011;5624;49.388;11.350;2022-08-20T02:09:48;17.27;;;13.70;;
11139;SDS011;5624;49.388;11.350;2022-08-20T02:12:14;17.05;;;13.48;;
11139;SDS011;5624;49.388;11.350;2022-08-20T02:14:48;18.52;;;13.85;;
11139;SDS011;5624;49.388;11.350;2022-08-20T02:17:16;16.85;;;12.70;;
11139;SDS011;5624;49.388;11.350;2022-08-20T02:19:44;17.13;;;13.50;;
11139;SDS011;5624;49.388;11.350;2022-08-20T02:24:45;14.25;;;12.38;;
11139;SDS011;5624;49.388;11.350;2022-08-20T02:27:10;16.02;;;13.00;;
11139;SDS011;5624;49.388;11.350;2022-08-20T02:29:37;14.80;;;11.90;;
11139;SDS011;5624;49.388;11.350;2022-08-20T02:32:03;14.20;;;12.05;;
11139;SDS011;5624;49.388;11.350;2022-08-20T02:34:30;15.23;;;12.60;;
11139;SDS011;5624;49.388;11.350;2022-08-20T02:36:58;13.23;;;11.82;;
11139;SDS011;5624;49.388;11.350;2022-08-20T02:39:24;16.17;;;12.00;;
11139;SDS011;5624;49.388;11.350;2022-08-20T02:41:50;14.60;;;12.43;;
11139;SDS011;5624;49.388;11.350;2022-08-20T02:44:16;15.85;;;12.48;;
11139;SDS011;5624;49.388;11.350;2022-08-20T02:46:44;16.45;;;13.07;;
11139;SDS011;5624;49.388;11.350;2022-08-20T02:49:10;13.23;;;10.98;;
11139;SDS011;5624;49.388;11.350;2022-08-20T02:51:36;13.52;;;11.40;;
11139;SDS011;5624;49.388;11.350;2022-08-20T02:54:01;14.85;;;12.35;;
11139;SDS011;5624;49.388;11.350;2022-08-20T02:56:27;14.73;;;12.25;;
11139;SDS011;5624;49.388;11.350;2022-08-20T02:58:53;16.45;;;12.38;;
11139;SDS011;5624;49.388;11.350;2022-08-20T03:01:18;15.43;;;11.20;;
11139;SDS011;5624;49.388;11.350;2022-08-20T03:03:44;13.45;;;11.70;;
11139;SDS011;5624;49.388;11.350;2022-08-20T03:06:11;14.30;;;10.95;;
11139;SDS011;5624;49.388;11.350;2022-08-20T03:08:37;12.40;;;10.98;;
11139;SDS011;5624;49.388;11.350;2022-08-20T03:11:04;13.02;;;10.68;;
11139;SDS011;5624;49.388;11.350;2022-08-20T03:13:30;11.50;;;10.27;;
11139;SDS011;5624;49.388;11.350;2022-08-20T03:15:57;11.55;;;10.20;;
11139;SDS011;5624;49.388;11.350;2022-08-20T03:18:26;13.10;;;10.60;;
11139;SDS011;5624;49.388;11.350;2022-08-20T03:20:57;11.30;;;10.15;;
11139;SDS011;5624;49.388;11.350;2022-08-20T03:23:22;13.88;;;10.77;;
11139;SDS011;5624;49.388;11.350;2022-08-20T03:25:48;13.27;;;11.73;;
11139;SDS011;5624;49.388;11.350;2022-08-20T03:28:14;11.30;;;9.80;;
11139;SDS011;5624;49.388;11.350;2022-08-20T03:30:41;14.43;;;10.73;;
11139;SDS011;5624;49.388;11.350;2022-08-20T03:33:07;13.55;;;10.70;;
11139;SDS011;5624;49.388;11.350;2022-08-20T03:35:34;14.45;;;11.43;;
11139;SDS011;5624;49.388;11.350;2022-08-20T03:38:00;12.98;;;11.20;;
11139;SDS011;5624;49.388;11.350;2022-08-20T03:40:30;11.88;;;10.52;;
11139;SDS011;5624;49.388;11.350;2022-08-20T03:42:58;14.02;;;11.15;;
11139;SDS011;5624;49.388;11.350;2022-08-20T03:45:24;11.70;;;10.48;;
11139;SDS011;5624;49.388;11.350;2022-08-20T03:47:51;13.50;;;10.77;;
11139;SDS011;5624;49.388;11.350;2022-08-20T03:50:20;15.68;;;12.13;;
11139;SDS011;5624;49.388;11.350;2022-08-20T03:52:49;11.95;;;10.38;;
11139;SDS011;5624;49.388;11.350;2022-08-20T03:55:15;12.18;;;10.88;;
11139;SDS011;5624;49.388;11.350;2022-08-20T03:57:48;13.07;;;11.25;;
11139;SDS011;5624;49.388;11.350;2022-08-20T04:00:27;13.20;;;10.48;;
11139;SDS011;5624;49.388;11.350;2022-08-20T04:02:58;14.25;;;11.10;;
11139;SDS011;5624;49.388;11.350;2022-08-20T04:05:26;13.63;;;12.23;;
11139;SDS011;5624;49.388;11.350;2022-08-20T04:07:53;12.98;;;10.30;;
11139;SDS011;5624;49.388;11.350;2022-08-20T04:10:20;14.52;;;12.23;;
11139;SDS011;5624;49.388;11.350;2022-08-20T04:12:46;14.88;;;11.05;;
11139;SDS011;5624;49.388;11.350;2022-08-20T04:15:13;13.63;;;11.60;;
11139;SDS011;5624;49.388;11.350;2022-08-20T04:17:41;14.60;;;12.43;;
11139;SDS011;5624;49.388;11.350;2022-08-20T04:20:10;13.02;;;11.60;;
11139;SDS011;5624;49.388;11.350;2022-08-20T04:22:42;14.90;;;11.75;;
11139;SDS011;5624;49.388;11.350;2022-08-20T04:25:10;15.88;;;12.10;;
11139;SDS011;5624;49.388;11.350;2022-08-20T04:27:37;13.95;;;11.50;;
11139;SDS011;5624;49.388;11.350;2022-08-20T04:30:05;14.68;;;12.20;;
11139;SDS011;5624;49.388;11.350;2022-08-20T04:32:38;13.38;;;11.70;;
11139;SDS011;5624;49.388;11.350;2022-08-20T04:35:06;16.02;;;13.35;;
11139;SDS011;5624;49.388;11.350;2022-08-20T04:37:36;15.82;;;12.77;;
11139;SDS011;5624;49.388;11.350;2022-08-20T04:40:07;16.30;;;12.65;;
11139;SDS011;5624;49.388;11.350;2022-08-20T04:42:54;15.60;;;12.93;;
11139;SDS011;5624;49.388;11.350;2022-08-20T04:45:22;15.80;;;12.80;;
11139;SDS011;5624;49.388;11.350;2022-08-20T04:47:50;18.52;;;14.13;;
11139;SDS011;5624;49.388;11.350;2022-08-20T04:50:17;17.48;;;13.80;;
11139;SDS011;5624;49.388;11.350;2022-08-20T04:52:44;17.92;;;14.07;;
11139;SDS011;5624;49.388;11.350;2022-08-20T04:55:12;17.13;;;13.77;;
11139;SDS011;5624;49.388;11.350;2022-08-20T04:57:41;17.67;;;14.35;;
11139;SDS011;5624;49.388;11.350;2022-08-20T05:00:09;18.15;;;14.20;;
11139;SDS011;5624;49.388;11.350;2022-08-20T05:02:39;20.38;;;14.90;;
11139;SDS011;5624;49.388;11.350;2022-08-20T05:05:06;18.42;;;13.60;;
11139;SDS011;5624;49.388;11.350;2022-08-20T05:07:37;18.55;;;13.23;;
11139;SDS011;5624;49.388;11.350;2022-08-20T05:10:10;16.48;;;13.05;;
11139;SDS011;5624;49.388;11.350;2022-08-20T05:12:39;16.55;;;13.18;;
11139;SDS011;5624;49.388;11.350;2022-08-20T05:15:06;17.20;;;13.35;;
11139;SDS011;5624;49.388;11.350;2022-08-20T05:17:33;15.40;;;13.00;;
11139;SDS011;5624;49.388;11.350;2022-08-20T05:19:59;14.93;;;12.43;;
11139;SDS011;5624;49.388;11.350;2022-08-20T05:22:27;17.30;;;12.82;;
11139;SDS011;5624;49.388;11.350;2022-08-20T05:24:52;15.32;;;13.18;;
11139;SDS011;5624;49.388;11.350;2022-08-20T05:27:21;13.82;;;12.25;;
11139;SDS011;5624;49.388;11.350;2022-08-20T05:29:51;13.60;;;12.07;;
11139;SDS011;5624;49.388;11.350;2022-08-20T05:32:19;14.93;;;11.73;;
11139;SDS011;5624;49.388;11.350;2022-08-20T05:34:45;13.20;;;11.50;;
11139;SDS011;5624;49.388;11.350;2022-08-20T05:37:12;14.43;;;12.32;;
11139;SDS011;5624;49.388;11.350;2022-08-20T05:39:39;13.13;;;11.23;;
11139;SDS011;5624;49.388;11.350;2022-08-20T05:42:05;12.48;;;11.13;;
11139;SDS011;5624;49.388;11.350;2022-08-20T05:44:31;12.45;;;10.18;;
11139;SDS011;5624;49.388;11.350;2022-08-20T05:46:57;11.63;;;10.35;;
11139;SDS011;5624;49.388;11.350;2022-08-20T05:49:23;11.80;;;10.50;;
11139;SDS011;5624;49.388;11.350;2022-08-20T05:51:49;10.73;;;9.48;;
11139;SDS011;5624;49.388;11.350;2022-08-20T05:54:17;12.18;;;10.65;;
11139;SDS011;5624;49.388;11.350;2022-08-20T05:56:43;12.15;;;10.95;;
11139;SDS011;5624;49.388;11.350;2022-08-20T05:59:09;12.75;;;10.43;;
11139;SDS011;5624;49.388;11.350;2022-08-20T06:01:38;12.85;;;10.88;;
11139;SDS011;5624;49.388;11.350;2022-08-20T06:04:06;12.57;;;11.25;;
11139;SDS011;5624;49.388;11.350;2022-08-20T06:07:00;13.63;;;11.35;;
11139;SDS011;5624;49.388;11.350;2022-08-20T06:09:29;13.60;;;12.20;;
11139;SDS011;5624;49.388;11.350;2022-08-20T06:11:56;13.70;;;12.10;;
11139;SDS011;5624;49.388;11.350;2022-08-20T06:14:23;15.00;;;12.90;;
11139;SDS011;5624;49.388;11.350;2022-08-20T06:16:50;14.43;;;12.18;;
11139;SDS011;5624;49.388;11.350;2022-08-20T06:19:16;17.05;;;14.02;;
11139;SDS011;5624;49.388;11.350;2022-08-20T06:21:43;15.27;;;12.95;;
11139;SDS011;5624;49.388;11.350;2022-08-20T06:24:09;16.38;;;14.63;;
11139;SDS011;5624;49.388;11.350;2022-08-20T06:26:35;19.88;;;14.90;;
11139;SDS011;5624;49.388;11.350;2022-08-20T06:29:02;17.20;;;15.45;;
11139;SDS011;5624;49.388;11.350;2022-08-20T06:31:30;19.75;;;16.75;;
11139;SDS011;5624;49.388;11.350;2022-08-20T06:33:58;21.95;;;18.58;;
11139;SDS011;5624;49.388;11.350;2022-08-20T06:36:24;20.27;;;17.00;;
11139;SDS011;5624;49.388;11.350;2022-08-20T06:38:51;19.88;;;17.10;;
11139;SDS011;5624;49.388;11.350;2022-08-20T06:41:18;20.77;;;18.60;;
11139;SDS011;5624;49.388;11.350;2022-08-20T06:43:44;22.95;;;18.55;;
11139;SDS011;5624;49.388;11.350;2022-08-20T06:46:10;23.13;;;20.52;;
11139;SDS011;5624;49.388;11.350;2022-08-20T06:48:37;25.25;;;21.67;;
11139;SDS011;5624;49.388;11.350;2022-08-20T06:51:03;24.33;;;21.77;;
11139;SDS011;5624;49.388;11.350;2022-08-20T06:53:30;26.73;;;22.23;;
11139;SDS011;5624;49.388;11.350;2022-08-20T06:55:57;24.42;;;21.80;;
11139;SDS011;5624;49.388;11.350;2022-08-20T06:58:24;24.67;;;22.02;;
11139;SDS011;5624;49.388;11.350;2022-08-20T07:00:50;24.98;;;22.33;;
11139;SDS011;5624;49.388;11.350;2022-08-20T07:03:16;26.13;;;23.33;;
11139;SDS011;5624;49.388;11.350;2022-08-20T07:05:43;24.08;;;21.58;;
11139;SDS011;5624;49.388;11.350;2022-08-20T07:08:10;25.42;;;22.77;;
11139;SDS011;5624;49.388;11.350;2022-08-20T07:10:37;26.27;;;22.33;;
11139;SDS011;5624;49.388;11.350;2022-08-20T07:13:04;23.50;;;21.08;;
11139;SDS011;5624;49.388;11.350;2022-08-20T07:15:30;26.10;;;21.92;;
11139;SDS011;5624;49.388;11.350;2022-08-20T07:17:59;24.92;;;22.42;;
11139;SDS011;5624;49.388;11.350;2022-08-20T07:20:27;23.85;;;21.30;;
11139;SDS011;5624;49.388;11.350;2022-08-20T07:22:55;24.52;;;21.88;;
11139;SDS011;5624;49.388;11.350;2022-08-20T07:25:22;23.55;;;21.17;;
11139;SDS011;5624;49.388;11.350;2022-08-20T07:27:49;25.77;;;23.27;;
11139;SDS011;5624;49.388;11.350;2022-08-20T07:30:21;23.67;;;21.33;;
11139;SDS011;5624;49.388;11.350;2022-08-20T07:33:07;24.20;;;21.80;;
11139;SDS011;5624;49.388;11.350;2022-08-20T07:35:33;23.17;;;20.88;;
11139;SDS011;5624;49.388;11.350;2022-08-20T07:37:59;23.23;;;20.92;;
11139;SDS011;5624;49.388;11.350;2022-08-20T07:40:27;21.67;;;19.48;;
11139;SDS011;5624;49.388;11.350;2022-08-20T07:42:54;21.25;;;19.25;;
11139;SDS011;5624;49.388;11.350;2022-08-20T07:45:22;24.63;;;22.17;;
11139;SDS011;5624;49.388;11.350;2022-08-20T07:47:49;22.10;;;19.90;;
11139;SDS011;5624;49.388;11.350;2022-08-20T07:50:21;25.10;;;19.88;;
11139;SDS011;5624;49.388;11.350;2022-08-20T07:52:48;26.15;;;20.17;;
11139;SDS011;5624;49.388;11.350;2022-08-20T07:55:17;22.63;;;20.05;;
11139;SDS011;5624;49.388;11.350;2022-08-20T07:57:46;21.77;;;19.52;;
11139;SDS011;5624;49.388;11.350;2022-08-20T08:00:14;22.92;;;20.52;;
11139;SDS011;5624;49.388;11.350;2022-08-20T08:02:41;21.48;;;19.48;;
11139;SDS011;5624;49.388;11.350;2022-08-20T08:05:08;22.02;;;19.80;;
11139;SDS011;5624;49.388;11.350;2022-08-20T08:07:35;25.63;;;20.73;;
11139;SDS011;5624;49.388;11.350;2022-08-20T08:10:02;20.77;;;18.75;;
11139;SDS011;5624;49.388;11.350;2022-08-20T08:12:39;23.02;;;20.92;;
11139;SDS011;5624;49.388;11.350;2022-08-20T08:15:09;22.13;;;19.90;;
11139;SDS011;5624;49.388;11.350;2022-08-20T08:17:39;21.77;;;19.77;;
11139;SDS011;5624;49.388;11.350;2022-08-20T08:20:08;20.35;;;18.45;;
11139;SDS011;5624;49.388;11.350;2022-08-20T08:22:36;23.20;;;20.05;;
11139;SDS011;5624;49.388;11.350;2022-08-20T08:25:07;23.17;;;20.98;;
11139;SDS011;5624;49.388;11.350;2022-08-20T08:27:34;23.00;;;20.90;;
11139;SDS011;5624;49.388;11.350;2022-08-20T08:30:00;22.52;;;20.52;;
11139;SDS011;5624;49.388;11.350;2022-08-20T08:32:28;22.38;;;20.27;;
11139;SDS011;5624;49.388;11.350;2022-08-20T08:34:57;21.17;;;19.17;;
11139;SDS011;5624;49.388;11.350;2022-08-20T08:37:26;22.17;;;20.00;;
11139;SDS011;5624;49.388;11.350;2022-08-20T08:39:52;22.52;;;20.20;;
11139;SDS011;5624;49.388;11.350;2022-08-20T08:42:25;22.48;;;20.38;;
11139;SDS011;5624;49.388;11.350;2022-08-20T08:44:59;24.15;;;21.23;;
11139;SDS011;5624;49.388;11.350;2022-08-20T08:47:32;24.33;;;22.02;;
11139;SDS011;5624;49.388;11.350;2022-08-20T08:50:03;22.67;;;20.58;;
11139;SDS011;5624;49.388;11.350;2022-08-20T08:52:31;21.60;;;19.35;;
11139;SDS011;5624;49.388;11.350;2022-08-20T08:55:01;24.50;;;21.20;;
11139;SDS011;5624;49.388;11.350;2022-08-20T08:57:29;23.33;;;21.02;;
11139;SDS011;5624;49.388;11.350;2022-08-20T08:59:59;23.58;;;21.42;;
11139;SDS011;5624;49.388;11.350;2022-08-20T09:02:29;20.20;;;18.30;;
11139;SDS011;5624;49.388;11.350;2022-08-20T09:04:57;22.88;;;20.77;;
11139;SDS011;5624;49.388;11.350;2022-08-20T09:07:26;23.25;;;20.90;;
11139;SDS011;5624;49.388;11.350;2022-08-20T09:09:56;21.25;;;19.25;;
11139;SDS011;5624;49.388;11.350;2022-08-20T09:12:23;25.00;;;22.40;;
11139;SDS011;5624;49.388;11.350;2022-08-20T09:14:52;23.60;;;21.30;;
11139;SDS011;5624;49.388;11.350;2022-08-20T09:17:19;21.90;;;19.80;;
11139;SDS011;5624;49.388;11.350;2022-08-20T09:19:46;23.35;;;21.08;;
11139;SDS011;5624;49.388;11.350;2022-08-20T09:22:15;22.52;;;20.33;;
11139;SDS011;5624;49.388;11.350;2022-08-20T09:24:43;22.27;;;19.98;;
11139;SDS011;5624;49.388;11.350;2022-08-20T09:27:09;23.38;;;21.05;;
11139;SDS011;5624;49.388;11.350;2022-08-20T09:29:35;24.20;;;19.13;;
11139;SDS011;5624;49.388;11.350;2022-08-20T09:32:05;20.92;;;18.88;;
11139;SDS011;5624;49.388;11.350;2022-08-20T09:34:38;20.33;;;18.52;;
11139;SDS011;5624;49.388;11.350;2022-08-20T09:37:06;19.63;;;17.73;;
11139;SDS011;5624;49.388;11.350;2022-08-20T09:39:33;19.60;;;17.90;;
11139;SDS011;5624;49.388;11.350;2022-08-20T09:42:06;19.73;;;17.83;;
11139;SDS011;5624;49.388;11.350;2022-08-20T09:44:37;24.13;;;18.48;;
11139;SDS011;5624;49.388;11.350;2022-08-20T09:47:03;20.13;;;18.15;;
11139;SDS011;5624;49.388;11.350;2022-08-20T09:49:29;21.38;;;18.55;;
11139;SDS011;5624;49.388;11.350;2022-08-20T09:51:55;20.75;;;18.42;;
11139;SDS011;5624;49.388;11.350;2022-08-20T09:54:22;19.88;;;18.08;;
11139;SDS011;5624;49.388;11.350;2022-08-20T09:56:52;19.10;;;17.20;;
11139;SDS011;5624;49.388;11.350;2022-08-20T09:59:18;20.88;;;18.85;;
11139;SDS011;5624;49.388;11.350;2022-08-20T10:01:44;19.50;;;17.65;;
11139;SDS011;5624;49.388;11.350;2022-08-20T10:04:10;19.98;;;18.08;;
11139;SDS011;5624;49.388;11.350;2022-08-20T10:06:38;21.80;;;19.60;;
11139;SDS011;5624;49.388;11.350;2022-08-20T10:09:04;20.05;;;18.25;;
11139;SDS011;5624;49.388;11.350;2022-08-20T10:11:31;20.60;;;18.80;;
11139;SDS011;5624;49.388;11.350;2022-08-20T10:30:33;17.67;;;16.00;;
11139;SDS011;5624;49.388;11.350;2022-08-20T10:32:59;20.25;;;18.35;;
11139;SDS011;5624;49.388;11.350;2022-08-20T10:35:25;19.15;;;17.40;;
11139;SDS011;5624;49.388;11.350;2022-08-20T10:37:51;18.73;;;16.88;;
11139;SDS011;5624;49.388;11.350;2022-08-20T10:40:17;19.70;;;17.80;;
11139;SDS011;5624;49.388;11.350;2022-08-20T10:42:43;20.50;;;18.50;;
11139;SDS011;5624;49.388;11.350;2022-08-20T11:02:04;20.05;;;18.15;;
11139;SDS011;5624;49.388;11.350;2022-08-20T11:04:29;19.73;;;18.02;;
11139;SDS011;5624;49.388;11.350;2022-08-20T11:06:55;18.95;;;17.05;;
11139;SDS011;5624;49.388;11.350;2022-08-20T11:09:21;19.05;;;17.33;;
11139;SDS011;5624;49.388;11.350;2022-08-20T11:11:47;19.05;;;17.30;;
11139;SDS011;5624;49.388;11.350;2022-08-20T11:14:14;18.52;;;16.83;;
11139;SDS011;5624;49.388;11.350;2022-08-20T11:16:39;18.67;;;17.00;;
11139;SDS011;5624;49.388;11.350;2022-08-20T11:19:05;18.10;;;16.30;;
11139;SDS011;5624;49.388;11.350;2022-08-20T11:21:32;17.27;;;15.75;;
11139;SDS011;5624;49.388;11.350;2022-08-20T11:23:59;16.52;;;14.95;;
11139;SDS011;5624;49.388;11.350;2022-08-20T11:26:25;16.30;;;14.90;;
11139;SDS011;5624;49.388;11.350;2022-08-20T11:28:52;15.95;;;14.45;;
11139;SDS011;5624;49.388;11.350;2022-08-20T11:31:18;18.30;;;16.40;;
11139;SDS011;5624;49.388;11.350;2022-08-20T11:33:44;16.02;;;14.60;;
11139;SDS011;5624;49.388;11.350;2022-08-20T11:36:09;16.80;;;15.20;;
11139;SDS011;5624;49.388;11.350;2022-08-20T11:38:35;14.90;;;13.68;;
11139;SDS011;5624;49.388;11.350;2022-08-20T11:41:02;18.73;;;17.13;;
11139;SDS011;5624;49.388;11.350;2022-08-20T11:43:28;19.10;;;17.25;;
11139;SDS011;5624;49.388;11.350;2022-08-20T11:45:54;17.75;;;16.17;;
11139;SDS011;5624;49.388;11.350;2022-08-20T11:48:20;18.15;;;16.42;;
11139;SDS011;5624;49.388;11.350;2022-08-20T11:50:46;15.95;;;14.32;;
11139;SDS011;5624;49.388;11.350;2022-08-20T11:53:13;15.27;;;13.77;;
11139;SDS011;5624;49.388;11.350;2022-08-20T11:55:40;16.63;;;15.07;;
11139;SDS011;5624;49.388;11.350;2022-08-20T11:58:06;16.95;;;15.30;;
11139;SDS011;5624;49.388;11.350;2022-08-20T12:00:33;15.65;;;14.15;;
11139;SDS011;5624;49.388;11.350;2022-08-20T12:03:01;15.75;;;14.07;;
11139;SDS011;5624;49.388;11.350;2022-08-20T12:05:28;14.25;;;12.82;;
11139;SDS011;5624;49.388;11.350;2022-08-20T12:07:54;16.13;;;14.63;;
11139;SDS011;5624;49.388;11.350;2022-08-20T12:10:21;14.55;;;13.25;;
11139;SDS011;5624;49.388;11.350;2022-08-20T12:12:48;14.10;;;12.90;;
11139;SDS011;5624;49.388;11.350;2022-08-20T12:15:14;16.55;;;15.05;;
11139;SDS011;5624;49.388;11.350;2022-08-20T12:17:40;14.90;;;13.45;;
11139;SDS011;5624;49.388;11.350;2022-08-20T12:20:07;17.60;;;15.82;;
11139;SDS011;5624;49.388;11.350;2022-08-20T12:22:34;16.02;;;14.43;;
11139;SDS011;5624;49.388;11.350;2022-08-20T12:25:00;15.45;;;14.05;;
11139;SDS011;5624;49.388;11.350;2022-08-20T12:27:28;14.23;;;12.63;;
11139;SDS011;5624;49.388;11.350;2022-08-20T12:29:56;14.05;;;12.75;;
11139;SDS011;5624;49.388;11.350;2022-08-20T12:32:26;14.70;;;13.30;;
11139;SDS011;5624;49.388;11.350;2022-08-20T12:34:53;14.02;;;12.32;;
11139;SDS011;5624;49.388;11.350;2022-08-20T12:37:21;14.75;;;13.38;;
11139;SDS011;5624;49.388;11.350;2022-08-20T12:39:50;13.73;;;12.32;;
11139;SDS011;5624;49.388;11.350;2022-08-20T12:42:18;12.35;;;11.15;;
11139;SDS011;5624;49.388;11.350;2022-08-20T12:44:44;14.35;;;12.88;;
11139;SDS011;5624;49.388;11.350;2022-08-20T12:49:39;14.73;;;13.32;;
11139;SDS011;5624;49.388;11.350;2022-08-20T12:52:07;12.82;;;11.63;;
11139;SDS011;5624;49.388;11.350;2022-08-20T12:54:33;11.45;;;10.45;;
11139;SDS011;5624;49.388;11.350;2022-08-20T12:56:59;13.88;;;12.52;;
11139;SDS011;5624;49.388;11.350;2022-08-20T12:59:25;13.20;;;11.93;;
11139;SDS011;5624;49.388;11.350;2022-08-20T13:01:52;14.68;;;12.13;;
11139;SDS011;5624;49.388;11.350;2022-08-20T13:04:18;12.73;;;11.40;;
11139;SDS011;5624;49.388;11.350;2022-08-20T13:06:44;13.05;;;11.75;;
11139;SDS011;5624;49.388;11.350;2022-08-20T13:09:10;12.50;;;11.30;;
11139;SDS011;5624;49.388;11.350;2022-08-20T13:11:37;15.05;;;13.60;;
11139;SDS011;5624;49.388;11.350;2022-08-20T13:14:03;12.88;;;11.55;;
11139;SDS011;5624;49.388;11.350;2022-08-20T13:16:29;12.85;;;11.63;;
11139;SDS011;5624;49.388;11.350;2022-08-20T13:18:55;13.98;;;12.63;;
11139;SDS011;5624;49.388;11.350;2022-08-20T13:21:21;14.43;;;13.00;;
11139;SDS011;5624;49.388;11.350;2022-08-20T13:23:47;14.68;;;13.27;;
11139;SDS011;5624;49.388;11.350;2022-08-20T13:26:13;13.77;;;12.48;;
11139;SDS011;5624;49.388;11.350;2022-08-20T13:28:38;13.30;;;12.10;;
11139;SDS011;5624;49.388;11.350;2022-08-20T13:31:04;13.55;;;12.30;;
11139;SDS011;5624;49.388;11.350;2022-08-20T13:33:30;13.35;;;12.00;;
11139;SDS011;5624;49.388;11.350;2022-08-20T13:35:56;12.95;;;11.75;;
11139;SDS011;5624;49.388;11.350;2022-08-20T13:38:23;13.55;;;12.35;;
11139;SDS011;5624;49.388;11.350;2022-08-20T13:40:50;12.52;;;11.43;;
11139;SDS011;5624;49.388;11.350;2022-08-20T13:43:16;13.50;;;12.27;;
11139;SDS011;5624;49.388;11.350;2022-08-20T13:45:42;13.18;;;11.98;;
11139;SDS011;5624;49.388;11.350;2022-08-20T13:48:07;13.30;;;12.10;;
11139;SDS011;5624;49.388;11.350;2022-08-20T13:50:34;11.52;;;10.43;;
11139;SDS011;5624;49.388;11.350;2022-08-20T13:53:00;15.85;;;13.73;;
11139;SDS011;5624;49.388;11.350;2022-08-20T13:55:27;13.70;;;12.30;;
11139;SDS011;5624;49.388;11.350;2022-08-20T13:57:53;14.02;;;12.60;;
11139;SDS011;5624;49.388;11.350;2022-08-20T14:00:21;13.05;;;11.85;;
11139;SDS011;5624;49.388;11.350;2022-08-20T14:02:50;14.63;;;12.07;;
11139;SDS011;5624;49.388;11.350;2022-08-20T14:05:16;13.52;;;12.10;;
11139;SDS011;5624;49.388;11.350;2022-08-20T14:07:42;13.02;;;11.73;;
11139;SDS011;5624;49.388;11.350;2022-08-20T14:10:11;13.77;;;12.20;;
11139;SDS011;5624;49.388;11.350;2022-08-20T14:12:41;12.05;;;10.90;;
11139;SDS011;5624;49.388;11.350;2022-08-20T14:15:08;15.93;;;13.68;;
11139;SDS011;5624;49.388;11.350;2022-08-20T14:17:35;15.68;;;13.57;;
11139;SDS011;5624;49.388;11.350;2022-08-20T14:20:04;15.50;;;13.98;;
11139;SDS011;5624;49.388;11.350;2022-08-20T14:22:32;16.83;;;15.02;;
11139;SDS011;5624;49.388;11.350;2022-08-20T14:24:58;18.13;;;16.45;;
11139;SDS011;5624;49.388;11.350;2022-08-20T14:27:27;15.18;;;13.75;;
11139;SDS011;5624;49.388;11.350;2022-08-20T14:29:55;15.73;;;14.13;;
11139;SDS011;5624;49.388;11.350;2022-08-20T14:32:21;16.73;;;14.85;;
11139;SDS011;5624;49.388;11.350;2022-08-20T14:34:46;16.33;;;14.63;;
11139;SDS011;5624;49.388;11.350;2022-08-20T14:39:42;14.18;;;12.77;;
11139;SDS011;5624;49.388;11.350;2022-08-20T14:42:10;12.68;;;11.38;;
11139;SDS011;5624;49.388;11.350;2022-08-20T14:44:36;14.05;;;12.75;;
11139;SDS011;5624;49.388;11.350;2022-08-20T14:49:37;13.57;;;11.13;;
11139;SDS011;5624;49.388;11.350;2022-08-20T14:52:03;11.15;;;9.90;;
11139;SDS011;5624;49.388;11.350;2022-08-20T14:54:29;11.77;;;10.55;;
11139;SDS011;5624;49.388;11.350;2022-08-20T14:56:56;10.57;;;9.52;;
11139;SDS011;5624;49.388;11.350;2022-08-20T14:59:22;11.15;;;10.13;;
11139;SDS011;5624;49.388;11.350;2022-08-20T15:01:48;10.80;;;9.70;;
11139;SDS011;5624;49.388;11.350;2022-08-20T15:04:14;10.95;;;9.85;;
11139;SDS011;5624;49.388;11.350;2022-08-20T15:06:40;10.90;;;9.00;;
11139;SDS011;5624;49.388;11.350;2022-08-20T15:09:06;10.30;;;9.25;;